createdAt,value
2022-08-22T00:00:45.573Z,4.63
2022-08-22T00:02:59.618Z,4.30
2022-08-22T00:05:54.037Z,4.72
2022-08-22T00:08:27.210Z,4.70
2022-08-22T00:10:58.883Z,5.10
2022-08-22T00:13:33.476Z,4.65
2022-08-22T00:16:05.424Z,5.57
2022-08-22T00:18:37.199Z,4.55
2022-08-22T00:21:10.928Z,5.78
2022-08-22T00:26:11.166Z,5.60
2022-08-22T00:28:41.031Z,5.43
2022-08-22T00:31:11.088Z,4.68
2022-08-22T00:33:43.388Z,4.82
2022-08-22T00:36:16.837Z,4.90
2022-08-22T00:38:48.719Z,5.25
2022-08-22T00:41:26.063Z,4.50
2022-08-22T00:44:19.148Z,4.20
2022-08-22T00:47:01.507Z,4.80
2022-08-22T00:49:39.492Z,5.05
2022-08-22T00:52:20.749Z,4.70
2022-08-22T00:55:01.954Z,5.22
2022-08-22T00:57:40.775Z,4.47
2022-08-22T01:00:15.218Z,4.70
2022-08-22T01:02:56.760Z,4.88
2022-08-22T01:05:32.232Z,4.65
2022-08-22T01:08:08.279Z,4.70
2022-08-22T01:10:50.988Z,5.35
2022-08-22T01:13:32.872Z,4.57
2022-08-22T01:16:10.184Z,5.13
2022-08-22T01:18:58.037Z,4.80
2022-08-22T01:21:43.752Z,5.20
2022-08-22T01:25:03.702Z,4.32
2022-08-22T01:27:48.100Z,4.55
2022-08-22T01:30:27.743Z,5.07
2022-08-22T01:33:14.777Z,5.32
2022-08-22T01:35:53.557Z,4.68
2022-08-22T01:38:35.637Z,4.55
2022-08-22T01:41:14.605Z,5.22
2022-08-22T01:44:00.019Z,5.57
2022-08-22T01:46:33.915Z,5.30
2022-08-22T01:49:06.914Z,5.18
2022-08-22T01:51:41.993Z,4.70
2022-08-22T01:54:13.006Z,5.13
2022-08-22T01:56:43.439Z,5.18
2022-08-22T01:59:14.942Z,4.70
2022-08-22T02:01:54.020Z,5.20
2022-08-22T02:04:30.741Z,4.95
2022-08-22T02:07:04.528Z,5.30
2022-08-22T02:12:05.576Z,4.95
2022-08-22T02:14:54.784Z,5.03
2022-08-22T02:17:24.946Z,4.82
2022-08-22T02:19:59.345Z,4.53
2022-08-22T02:22:33.019Z,5.15
2022-08-22T02:27:35.192Z,4.65
2022-08-22T02:32:35.349Z,5.05
2022-08-22T02:35:06.970Z,5.05
2022-08-22T02:37:38.778Z,4.93
2022-08-22T02:40:11.508Z,5.45
2022-08-22T02:42:43.134Z,5.28
2022-08-22T02:45:17.977Z,4.90
2022-08-22T02:47:51.162Z,5.15
2022-08-22T02:50:21.139Z,4.88
2022-08-22T02:52:55.859Z,5.15
2022-08-22T02:55:33.521Z,5.05
2022-08-22T02:58:06.212Z,5.47
2022-08-22T03:00:44.556Z,5.53
2022-08-22T03:03:17.492Z,5.28
2022-08-22T03:05:52.515Z,5.30
2022-08-22T03:08:25.580Z,5.63
2022-08-22T03:10:59.104Z,5.28
2022-08-22T03:13:37.873Z,5.43
2022-08-22T03:16:08.583Z,4.97
2022-08-22T03:18:45.204Z,5.70
2022-08-22T03:21:17.560Z,5.38
2022-08-22T03:23:49.747Z,5.00
2022-08-22T03:26:20.324Z,5.50
2022-08-22T03:28:59.321Z,5.05
2022-08-22T03:31:29.410Z,5.68
2022-08-22T03:34:15.880Z,5.55
2022-08-22T03:36:47.717Z,5.75
2022-08-22T03:39:20.436Z,5.90
2022-08-22T03:41:55.074Z,6.07
2022-08-22T03:44:43.691Z,6.70
2022-08-22T03:47:32.131Z,6.07
2022-08-22T03:50:17.472Z,6.70
2022-08-22T03:53:18.740Z,5.72
2022-08-22T03:56:02.729Z,5.80
2022-08-22T03:58:44.778Z,6.57
2022-08-22T04:01:41.143Z,6.25
2022-08-22T04:04:30.408Z,6.15
2022-08-22T04:07:27.976Z,6.10
2022-08-22T04:10:19.081Z,5.60
2022-08-22T04:12:53.082Z,5.97
2022-08-22T04:15:38.911Z,6.43
2022-08-22T04:18:20.392Z,5.60
2022-08-22T04:21:01.380Z,6.03
2022-08-22T04:23:37.685Z,5.53
2022-08-22T04:26:13.277Z,5.65
2022-08-22T04:28:43.511Z,6.22
2022-08-22T04:31:14.497Z,6.30
2022-08-22T04:33:45.813Z,6.35
2022-08-22T04:36:17.760Z,5.88
2022-08-22T04:38:49.006Z,6.68
2022-08-22T04:41:20.532Z,5.75
2022-08-22T04:43:51.719Z,6.45
2022-08-22T04:46:33.744Z,6.53
2022-08-22T04:49:07.693Z,6.07
2022-08-22T04:51:37.585Z,6.65
2022-08-22T04:54:13.446Z,6.70
2022-08-22T04:56:46.942Z,7.50
2022-08-22T04:59:17.580Z,6.95
2022-08-22T05:01:48.322Z,6.95
2022-08-22T05:04:20.263Z,6.72
2022-08-22T05:06:49.882Z,7.45
2022-08-22T05:09:21.019Z,7.72
2022-08-22T05:11:51.563Z,7.40
2022-08-22T05:14:21.481Z,7.82
2022-08-22T05:16:54.177Z,6.82
2022-08-22T05:19:31.682Z,7.20
2022-08-22T05:22:00.947Z,7.07
2022-08-22T05:24:33.739Z,7.70
2022-08-22T05:27:04.436Z,6.72
2022-08-22T05:29:34.182Z,6.95
2022-08-22T05:32:05.737Z,7.15
2022-08-22T05:34:37.186Z,7.43
2022-08-22T05:37:10.288Z,7.40
2022-08-22T05:39:39.697Z,7.18
2022-08-22T05:42:14.153Z,7.30
2022-08-22T05:44:42.653Z,7.70
2022-08-22T05:47:21.949Z,6.82
2022-08-22T05:49:54.955Z,6.82
2022-08-22T05:52:26.282Z,6.57
2022-08-22T05:54:59.118Z,6.38
2022-08-22T05:57:30.661Z,6.78
2022-08-22T06:00:02.918Z,6.55
2022-08-22T06:02:41.506Z,6.30
2022-08-22T06:05:12.176Z,6.38
2022-08-22T06:07:43.688Z,6.25
2022-08-22T06:10:19.717Z,7.00
2022-08-22T06:12:52.107Z,6.22
2022-08-22T06:15:23.203Z,6.50
2022-08-22T06:17:55.844Z,5.88
2022-08-22T06:20:28.647Z,6.68
2022-08-22T06:22:59.209Z,6.70
2022-08-22T06:25:29.478Z,6.10
2022-08-22T06:28:00.171Z,6.15
2022-08-22T06:30:30.259Z,6.07
2022-08-22T06:33:02.978Z,7.00
2022-08-22T06:36:01.884Z,6.30
2022-08-22T06:38:32.430Z,5.85
2022-08-22T06:41:02.553Z,6.70
2022-08-22T06:43:34.202Z,6.40
2022-08-22T06:46:02.795Z,6.15
2022-08-22T06:48:32.791Z,5.60
2022-08-22T06:51:01.201Z,6.18
2022-08-22T06:53:33.133Z,5.95
2022-08-22T06:56:05.678Z,5.65
2022-08-22T06:58:36.695Z,5.93
2022-08-22T07:01:12.169Z,5.97
2022-08-22T07:03:45.252Z,6.15
2022-08-22T07:06:15.817Z,6.60
2022-08-22T07:08:44.406Z,5.82
2022-08-22T07:11:16.323Z,6.82
2022-08-22T07:13:46.016Z,5.15
2022-08-22T07:16:14.547Z,5.60
2022-08-22T07:18:51.230Z,5.45
2022-08-22T07:21:26.877Z,5.43
2022-08-22T07:23:56.642Z,5.47
2022-08-22T07:26:30.691Z,5.60
2022-08-22T07:29:01.214Z,5.15
2022-08-22T07:31:35.282Z,4.88
2022-08-22T07:34:13.366Z,5.45
2022-08-22T07:36:44.735Z,5.55
2022-08-22T07:39:25.900Z,5.22
2022-08-22T07:42:08.003Z,5.03
2022-08-22T07:44:40.013Z,4.85
2022-08-22T07:47:09.937Z,4.95
2022-08-22T07:49:49.620Z,4.82
2022-08-22T07:52:18.853Z,5.00
2022-08-22T07:54:49.082Z,4.68
2022-08-22T07:57:22.050Z,4.68
2022-08-22T07:59:52.757Z,4.10
2022-08-22T08:02:22.027Z,4.20
2022-08-22T08:04:53.184Z,3.95
2022-08-22T08:07:23.228Z,3.95
2022-08-22T08:09:52.937Z,4.10
2022-08-22T08:12:22.966Z,4.22
2022-08-22T08:14:53.962Z,3.85
2022-08-22T08:17:24.201Z,3.70
2022-08-22T08:19:54.988Z,4.18
2022-08-22T08:22:27.281Z,4.22
2022-08-22T08:24:57.571Z,3.22
2022-08-22T08:27:45.071Z,3.20
2022-08-22T08:30:21.247Z,3.53
2022-08-22T08:32:50.810Z,2.75
2022-08-22T08:35:28.988Z,2.70
2022-08-22T08:38:00.755Z,2.42
2022-08-22T08:40:49.177Z,3.30
2022-08-22T08:43:29.922Z,2.42
2022-08-22T08:46:09.112Z,2.95
2022-08-22T08:48:51.955Z,2.42
2022-08-22T08:51:29.608Z,2.60
2022-08-22T08:54:17.549Z,2.40
2022-08-22T08:56:51.474Z,2.88
2022-08-22T08:59:28.023Z,2.70
2022-08-22T09:02:08.643Z,2.50
2022-08-22T09:04:57.050Z,2.08
2022-08-22T09:07:37.442Z,2.80
2022-08-22T09:10:27.429Z,2.20
2022-08-22T09:13:15.649Z,2.90
2022-08-22T09:16:04.956Z,2.17
2022-08-22T09:19:04.006Z,2.45
2022-08-22T09:21:47.228Z,2.35
2022-08-22T09:24:39.556Z,2.30
2022-08-22T09:27:13.941Z,2.10
2022-08-22T09:29:54.842Z,2.60
2022-08-22T09:32:36.327Z,2.60
2022-08-22T09:35:08.511Z,2.20
2022-08-22T09:37:41.971Z,2.47
2022-08-22T09:40:17.621Z,2.15
2022-08-22T09:42:56.802Z,2.55
2022-08-22T09:45:40.349Z,2.40
2022-08-22T09:48:17.593Z,2.13
2022-08-22T09:50:52.782Z,2.50
2022-08-22T09:53:32.427Z,2.30
2022-08-22T09:56:15.030Z,2.08
2022-08-22T09:58:49.368Z,2.15
2022-08-22T10:01:24.164Z,2.28
2022-08-22T10:04:11.139Z,2.13
2022-08-22T10:06:43.963Z,2.13
2022-08-22T10:09:18.082Z,2.28
2022-08-22T10:11:50.107Z,2.20
2022-08-22T10:14:22.813Z,1.88
2022-08-22T10:16:56.597Z,1.85
2022-08-22T10:19:28.207Z,2.47
2022-08-22T10:22:15.330Z,1.92
2022-08-22T10:24:49.166Z,2.20
2022-08-22T10:27:23.616Z,1.83
2022-08-22T10:30:05.212Z,2.17
2022-08-22T10:32:37.015Z,2.17
2022-08-22T10:35:12.885Z,2.00
2022-08-22T10:37:51.071Z,1.83
2022-08-22T10:40:24.349Z,1.75
2022-08-22T10:45:36.285Z,1.83
2022-08-22T10:48:29.332Z,1.88
2022-08-22T10:51:03.396Z,2.13
2022-08-22T10:53:42.884Z,2.10
2022-08-22T10:56:13.482Z,1.88
2022-08-22T10:58:44.654Z,2.00
2022-08-22T11:01:37.553Z,1.83
2022-08-22T11:04:12.269Z,2.15
2022-08-22T11:06:45.853Z,1.90
2022-08-22T11:09:21.004Z,1.80
2022-08-22T11:11:52.008Z,1.58
2022-08-22T11:14:34.747Z,2.15
2022-08-22T11:17:28.023Z,1.90
2022-08-22T11:20:07.052Z,1.90
2022-08-22T11:22:45.865Z,1.60
2022-08-22T11:25:38.502Z,1.50
2022-08-22T11:28:37.650Z,1.60
2022-08-22T11:31:09.531Z,1.60
2022-08-22T11:33:47.849Z,1.63
2022-08-22T11:36:26.162Z,1.50
2022-08-22T11:39:01.181Z,1.80
2022-08-22T11:41:33.293Z,1.75
2022-08-22T11:44:03.759Z,1.85
2022-08-22T11:46:35.380Z,1.33
2022-08-22T11:49:15.740Z,1.73
2022-08-22T11:51:57.808Z,2.13
2022-08-22T11:54:31.644Z,1.80
2022-08-22T11:57:05.098Z,1.60
2022-08-22T11:59:42.978Z,1.70
2022-08-22T12:02:19.396Z,1.67
2022-08-22T12:04:53.104Z,1.60
2022-08-22T12:07:25.259Z,1.42
2022-08-22T12:09:55.764Z,1.77
2022-08-22T12:12:32.286Z,1.60
2022-08-22T12:15:03.737Z,1.52
2022-08-22T12:17:56.015Z,1.48
2022-08-22T12:20:45.759Z,1.83
2022-08-22T12:23:40.776Z,1.30
2022-08-22T12:26:22.027Z,1.60
2022-08-22T12:28:57.396Z,1.20
2022-08-22T12:31:32.266Z,1.55
2022-08-22T12:34:06.482Z,1.40
2022-08-22T12:36:47.074Z,1.58
2022-08-22T12:39:34.386Z,1.60
2022-08-22T12:42:07.843Z,1.50
2022-08-22T12:44:42.489Z,1.50
2022-08-22T12:47:17.827Z,1.60
2022-08-22T12:50:03.820Z,1.50
2022-08-22T12:52:51.222Z,1.45
2022-08-22T12:55:31.067Z,1.73
2022-08-22T12:58:04.413Z,1.60
2022-08-22T13:00:35.683Z,1.95
2022-08-22T13:03:06.702Z,1.70
2022-08-22T13:08:11.709Z,1.40
2022-08-22T13:10:42.827Z,1.75
2022-08-22T13:13:15.166Z,1.38
2022-08-22T13:15:55.983Z,1.60
2022-08-22T13:18:29.740Z,1.55
2022-08-22T13:21:00.491Z,1.73
2022-08-22T13:23:34.377Z,1.33
2022-08-22T13:26:10.469Z,1.48
2022-08-22T13:28:44.154Z,1.65
2022-08-22T13:31:20.280Z,1.42
2022-08-22T13:33:50.114Z,1.38
2022-08-22T13:36:20.371Z,1.58
2022-08-22T13:38:51.894Z,1.50
2022-08-22T13:41:23.269Z,1.70
2022-08-22T13:43:59.755Z,1.83
2022-08-22T13:46:30.226Z,1.83
2022-08-22T13:49:01.380Z,1.40
2022-08-22T13:51:32.575Z,1.70
2022-08-22T13:54:11.181Z,1.40
2022-08-22T13:56:47.509Z,1.50
2022-08-22T13:59:40.378Z,1.60
2022-08-22T14:02:17.831Z,1.33
2022-08-22T14:04:46.866Z,1.80
2022-08-22T14:07:24.266Z,1.58
2022-08-22T14:09:58.095Z,2.03
2022-08-22T14:12:27.803Z,1.52
2022-08-22T14:15:03.270Z,2.10
2022-08-22T14:17:33.108Z,1.60
2022-08-22T14:20:03.864Z,2.00
2022-08-22T14:22:36.605Z,1.60
2022-08-22T14:25:08.772Z,2.08
2022-08-22T14:27:39.776Z,2.20
2022-08-22T14:30:13.816Z,1.63
2022-08-22T14:32:46.052Z,2.10
2022-08-22T14:35:21.468Z,1.60
2022-08-22T14:37:55.541Z,1.63
2022-08-22T14:40:27.452Z,1.77
2022-08-22T14:42:57.690Z,1.73
2022-08-22T14:45:27.495Z,1.70
2022-08-22T14:48:29.370Z,1.67
2022-08-22T14:50:46.236Z,1.65
2022-08-22T14:53:26.931Z,1.65
2022-08-22T14:55:59.681Z,1.88
2022-08-22T14:58:28.503Z,1.75
2022-08-22T15:00:58.274Z,1.88
2022-08-22T15:03:27.942Z,1.60
2022-08-22T15:05:58.670Z,1.80
2022-08-22T15:08:31.894Z,2.08
2022-08-22T15:11:14.040Z,1.65
2022-08-22T15:13:44.823Z,1.80
2022-08-22T15:16:17.866Z,2.13
2022-08-22T15:21:24.285Z,1.58
2022-08-22T15:23:55.147Z,1.52
2022-08-22T15:26:30.776Z,1.90
2022-08-22T15:29:08.823Z,1.77
2022-08-22T15:31:39.651Z,1.50
2022-08-22T15:34:18.039Z,1.42
2022-08-22T15:37:07.870Z,1.73
2022-08-22T15:39:39.394Z,1.65
2022-08-22T15:42:13.454Z,1.80
2022-08-22T15:44:44.386Z,1.85
2022-08-22T15:47:27.650Z,2.33
2022-08-22T15:52:27.179Z,1.80
2022-08-22T15:55:08.807Z,1.40
2022-08-22T15:57:40.018Z,1.60
2022-08-22T16:00:28.042Z,1.67
2022-08-22T16:02:58.735Z,1.42
2022-08-22T16:05:29.682Z,1.75
2022-08-22T16:08:04.399Z,1.50
2022-08-22T16:10:36.764Z,1.60
2022-08-22T16:13:32.181Z,1.73
2022-08-22T16:16:03.117Z,1.40
2022-08-22T16:18:50.305Z,2.17
2022-08-22T16:21:20.118Z,1.60
2022-08-22T16:24:06.921Z,1.67
2022-08-22T16:26:39.919Z,1.52
2022-08-22T16:29:09.208Z,1.65
2022-08-22T16:31:42.837Z,1.35
2022-08-22T16:34:26.349Z,1.63
2022-08-22T16:37:17.900Z,1.55
2022-08-22T16:39:48.743Z,1.20
2022-08-22T16:42:32.058Z,1.25
2022-08-22T16:45:12.002Z,1.38
2022-08-22T16:47:43.870Z,1.25
2022-08-22T16:50:28.266Z,1.60
2022-08-22T16:53:01.161Z,1.70
2022-08-22T16:58:06.323Z,1.58
2022-08-22T17:00:40.049Z,1.70
2022-08-22T17:03:12.982Z,1.90
2022-08-22T17:08:27.370Z,1.58
2022-08-22T17:11:04.713Z,1.75
2022-08-22T17:13:50.527Z,1.55
2022-08-22T17:16:28.161Z,1.50
2022-08-22T17:19:05.076Z,1.70
2022-08-22T17:21:40.202Z,1.67
2022-08-22T17:24:34.103Z,1.90
2022-08-22T17:27:06.449Z,1.70
2022-08-22T17:29:42.837Z,1.80
2022-08-22T17:32:15.217Z,2.15
2022-08-22T17:34:50.740Z,1.40
2022-08-22T17:37:24.173Z,1.60
2022-08-22T17:40:07.469Z,1.70
2022-08-22T17:42:42.926Z,1.83
2022-08-22T17:45:14.539Z,1.67
2022-08-22T17:47:45.974Z,1.85
2022-08-22T17:50:23.547Z,1.73
2022-08-22T17:52:53.692Z,1.70
2022-08-22T17:55:24.136Z,1.50
2022-08-22T17:57:54.809Z,1.60
2022-08-22T18:00:28.409Z,1.77
2022-08-22T18:02:59.369Z,1.60
2022-08-22T18:05:31.331Z,1.73
2022-08-22T18:08:04.624Z,2.25
2022-08-22T18:13:07.432Z,2.00
2022-08-22T18:15:40.346Z,1.80
2022-08-22T18:18:10.917Z,2.40
2022-08-22T18:20:46.734Z,2.33
2022-08-22T18:23:39.087Z,1.85
2022-08-22T18:26:15.271Z,2.10
2022-08-22T18:28:45.657Z,1.80
2022-08-22T18:31:22.701Z,1.80
2022-08-22T18:33:52.810Z,1.40
2022-08-22T18:36:27.273Z,1.50
2022-08-22T18:38:59.601Z,1.60
2022-08-22T18:41:31.494Z,1.65
2022-08-22T18:44:01.110Z,1.70
2022-08-22T18:46:44.345Z,1.75
2022-08-22T18:49:15.893Z,1.60
2022-08-22T18:51:45.856Z,1.83
2022-08-22T18:54:39.253Z,1.70
2022-08-22T18:57:13.242Z,2.10
2022-08-22T18:59:48.961Z,1.80
2022-08-22T19:02:29.575Z,2.13
2022-08-22T19:05:11.807Z,2.13
2022-08-22T19:07:53.800Z,2.13
2022-08-22T19:10:30.112Z,1.95
2022-08-22T19:13:13.790Z,2.00
2022-08-22T19:15:50.779Z,1.83
2022-08-22T19:18:23.734Z,1.75
2022-08-22T19:21:27.632Z,1.50
2022-08-22T19:23:57.527Z,1.77
2022-08-22T19:26:28.880Z,1.80
2022-08-22T19:28:58.472Z,1.70
2022-08-22T19:31:44.358Z,2.00
2022-08-22T19:34:18.314Z,1.67
2022-08-22T19:36:47.279Z,1.92
2022-08-22T19:39:30.490Z,2.22
2022-08-22T19:42:01.203Z,2.30
2022-08-22T19:44:37.663Z,2.50
2022-08-22T19:47:26.998Z,2.10
2022-08-22T19:50:01.360Z,2.83
2022-08-22T19:52:54.759Z,2.63
2022-08-22T19:55:27.400Z,2.05
2022-08-22T19:58:01.107Z,2.13
2022-08-22T20:00:42.306Z,2.22
2022-08-22T20:03:13.285Z,2.70
2022-08-22T20:05:56.681Z,2.67
2022-08-22T20:08:35.034Z,2.00
2022-08-22T20:11:12.718Z,2.45
2022-08-22T20:13:42.672Z,2.45
2022-08-22T20:16:16.106Z,2.20
2022-08-22T20:19:01.900Z,2.35
2022-08-22T20:21:41.120Z,2.13
2022-08-22T20:24:10.900Z,2.20
2022-08-22T20:26:57.306Z,2.40
2022-08-22T20:29:32.402Z,2.20
2022-08-22T20:32:01.411Z,2.53
2022-08-22T20:34:31.011Z,2.20
2022-08-22T20:37:23.636Z,2.50
2022-08-22T20:39:58.764Z,2.47
2022-08-22T20:42:28.498Z,2.45
2022-08-22T20:44:59.274Z,2.20
2022-08-22T20:47:36.167Z,2.30
2022-08-22T20:50:12.563Z,2.40
2022-08-22T20:52:54.323Z,2.22
2022-08-22T20:55:31.290Z,1.90
2022-08-22T20:58:01.522Z,1.98
2022-08-22T21:00:33.556Z,2.30
2022-08-22T21:03:03.612Z,2.67
2022-08-22T21:05:35.081Z,2.38
2022-08-22T21:08:04.882Z,2.50
2022-08-22T21:10:53.555Z,2.30
2022-08-22T21:13:23.430Z,2.45
2022-08-22T21:15:54.792Z,2.83
2022-08-22T21:18:28.032Z,2.65
2022-08-22T21:20:56.674Z,2.45
2022-08-22T21:23:25.078Z,3.33
2022-08-22T21:25:59.378Z,3.03
2022-08-22T21:28:32.077Z,2.75
2022-08-22T21:31:09.246Z,2.70
2022-08-22T21:33:40.987Z,2.90
2022-08-22T21:36:11.427Z,2.40
2022-08-22T21:38:42.361Z,2.25
2022-08-22T21:41:10.973Z,3.00
2022-08-22T21:43:40.382Z,2.60
2022-08-22T21:46:25.288Z,2.50
2022-08-22T21:48:59.786Z,2.40
2022-08-22T21:51:30.222Z,2.80
2022-08-22T21:54:19.148Z,2.50
2022-08-22T21:56:47.693Z,2.70
2022-08-22T21:59:40.169Z,2.72
2022-08-22T22:02:31.373Z,2.63
2022-08-22T22:05:05.350Z,2.88
2022-08-22T22:07:37.194Z,2.85
2022-08-22T22:10:07.215Z,2.78
2022-08-22T22:12:35.507Z,3.30
2022-08-22T22:15:04.539Z,3.08
2022-08-22T22:17:34.269Z,2.90
2022-08-22T22:20:02.622Z,2.75
2022-08-22T22:22:30.922Z,2.80
2022-08-22T22:25:01.289Z,2.80
2022-08-22T22:27:29.611Z,2.90
2022-08-22T22:29:58.415Z,3.15
2022-08-22T22:32:26.771Z,3.13
2022-08-22T22:34:56.820Z,3.47
2022-08-22T22:37:25.429Z,3.25
2022-08-22T22:39:53.801Z,2.90
2022-08-22T22:42:22.116Z,2.88
2022-08-22T22:44:50.422Z,3.08
2022-08-22T22:47:18.728Z,3.15
2022-08-22T22:49:47.120Z,3.38
2022-08-22T22:52:16.784Z,3.47
2022-08-22T22:54:45.061Z,3.28
2022-08-22T22:57:17.206Z,3.33
2022-08-22T22:59:53.814Z,3.22
2022-08-22T23:02:24.138Z,3.45
2022-08-22T23:04:53.759Z,3.42
2022-08-22T23:07:25.639Z,3.83
2022-08-22T23:09:54.684Z,3.58
2022-08-22T23:12:25.309Z,3.70
2022-08-22T23:14:53.612Z,3.63
2022-08-22T23:17:21.925Z,3.33
2022-08-22T23:19:51.860Z,3.80
2022-08-22T23:22:20.214Z,3.72
2022-08-22T23:24:50.831Z,3.58
2022-08-22T23:27:19.136Z,3.42
2022-08-22T23:29:47.435Z,3.22
2022-08-22T23:32:15.760Z,3.95
2022-08-22T23:34:46.078Z,3.72
2022-08-22T23:37:15.709Z,4.07
2022-08-22T23:39:44.596Z,3.85
2022-08-22T23:42:15.461Z,4.03
2022-08-22T23:44:45.220Z,3.90
2022-08-22T23:47:14.399Z,4.30
2022-08-22T23:49:43.484Z,3.75
2022-08-22T23:52:13.693Z,4.18
2022-08-22T23:54:42.149Z,3.88
2022-08-22T23:57:11.508Z,3.60
2022-08-22T23:59:47.933Z,3.70
